sensor_id;sensor_type;location;lat;lon;timestamp;P1;durP1;ratioP1;P2;durP2;ratioP2
77246;SDS011;66279;42.820;23.374;2023-02-25T00:01:39;6.03;;;5.43;;
77246;SDS011;66279;42.820;23.374;2023-02-25T00:04:04;7.60;;;5.95;;
77246;SDS011;66279;42.820;23.374;2023-02-25T00:06:30;9.00;;;6.68;;
77246;SDS011;66279;42.820;23.374;2023-02-25T00:08:56;7.85;;;6.30;;
77246;SDS011;66279;42.820;23.374;2023-02-25T00:11:22;8.73;;;6.00;;
77246;SDS011;66279;42.820;23.374;2023-02-25T00:13:49;6.15;;;5.57;;
77246;SDS011;66279;42.820;23.374;2023-02-25T00:16:15;9.02;;;6.32;;
77246;SDS011;66279;42.820;23.374;2023-02-25T00:18:58;7.80;;;6.18;;
77246;SDS011;66279;42.820;23.374;2023-02-25T00:21:40;8.15;;;5.70;;
77246;SDS011;66279;42.820;23.374;2023-02-25T00:24:28;6.28;;;5.50;;
77246;SDS011;66279;42.820;23.374;2023-02-25T00:30:25;7.28;;;5.43;;
77246;SDS011;66279;42.820;23.374;2023-02-25T00:32:58;8.13;;;5.07;;
77246;SDS011;66279;42.820;23.374;2023-02-25T00:35:24;6.13;;;5.00;;
77246;SDS011;66279;42.820;23.374;2023-02-25T00:37:56;7.80;;;5.50;;
77246;SDS011;66279;42.820;23.374;2023-02-25T00:40:22;8.07;;;5.90;;
77246;SDS011;66279;42.820;23.374;2023-02-25T00:42:49;12.93;;;7.95;;
77246;SDS011;66279;42.820;23.374;2023-02-25T00:45:21;9.98;;;6.72;;
77246;SDS011;66279;42.820;23.374;2023-02-25T00:47:51;10.02;;;7.30;;
77246;SDS011;66279;42.820;23.374;2023-02-25T00:50:23;10.88;;;6.57;;
77246;SDS011;66279;42.820;23.374;2023-02-25T00:52:52;9.95;;;6.97;;
77246;SDS011;66279;42.820;23.374;2023-02-25T00:55:21;8.48;;;6.95;;
77246;SDS011;66279;42.820;23.374;2023-02-25T00:57:48;8.30;;;7.32;;
77246;SDS011;66279;42.820;23.374;2023-02-25T01:00:23;8.40;;;6.00;;
77246;SDS011;66279;42.820;23.374;2023-02-25T01:02:51;7.85;;;5.65;;
77246;SDS011;66279;42.820;23.374;2023-02-25T01:05:21;6.47;;;5.47;;
77246;SDS011;66279;42.820;23.374;2023-02-25T01:07:48;6.88;;;6.13;;
77246;SDS011;66279;42.820;23.374;2023-02-25T01:10:17;6.90;;;4.88;;
77246;SDS011;66279;42.820;23.374;2023-02-25T01:12:43;7.95;;;4.65;;
77246;SDS011;66279;42.820;23.374;2023-02-25T01:15:10;6.75;;;5.25;;
77246;SDS011;66279;42.820;23.374;2023-02-25T01:17:38;9.35;;;6.10;;
77246;SDS011;66279;42.820;23.374;2023-02-25T01:20:04;10.30;;;6.53;;
77246;SDS011;66279;42.820;23.374;2023-02-25T01:22:35;8.73;;;6.30;;
77246;SDS011;66279;42.820;23.374;2023-02-25T01:25:06;10.25;;;6.97;;
77246;SDS011;66279;42.820;23.374;2023-02-25T01:27:38;9.57;;;8.40;;
77246;SDS011;66279;42.820;23.374;2023-02-25T01:30:05;11.55;;;7.32;;
77246;SDS011;66279;42.820;23.374;2023-02-25T01:32:30;8.43;;;7.63;;
77246;SDS011;66279;42.820;23.374;2023-02-25T01:34:56;8.95;;;7.80;;
77246;SDS011;66279;42.820;23.374;2023-02-25T01:37:23;12.20;;;8.00;;
77246;SDS011;66279;42.820;23.374;2023-02-25T01:39:48;12.00;;;9.20;;
77246;SDS011;66279;42.820;23.374;2023-02-25T01:42:15;10.93;;;8.50;;
77246;SDS011;66279;42.820;23.374;2023-02-25T01:47:47;11.80;;;8.68;;
77246;SDS011;66279;42.820;23.374;2023-02-25T01:50:17;11.43;;;9.35;;
77246;SDS011;66279;42.820;23.374;2023-02-25T01:52:44;12.15;;;8.68;;
77246;SDS011;66279;42.820;23.374;2023-02-25T01:55:11;10.95;;;9.65;;
77246;SDS011;66279;42.820;23.374;2023-02-25T01:57:40;12.05;;;9.45;;
77246;SDS011;66279;42.820;23.374;2023-02-25T02:00:07;10.00;;;7.38;;
77246;SDS011;66279;42.820;23.374;2023-02-25T02:02:41;11.77;;;7.28;;
77246;SDS011;66279;42.820;23.374;2023-02-25T02:05:13;14.25;;;9.38;;
77246;SDS011;66279;42.820;23.374;2023-02-25T02:07:40;10.95;;;9.13;;
77246;SDS011;66279;42.820;23.374;2023-02-25T02:10:07;10.68;;;9.07;;
77246;SDS011;66279;42.820;23.374;2023-02-25T02:12:35;18.52;;;10.98;;
77246;SDS011;66279;42.820;23.374;2023-02-25T02:15:10;21.65;;;14.63;;
77246;SDS011;66279;42.820;23.374;2023-02-25T02:17:43;15.30;;;10.25;;
77246;SDS011;66279;42.820;23.374;2023-02-25T02:20:25;13.13;;;9.68;;
77246;SDS011;66279;42.820;23.374;2023-02-25T02:40:00;4.85;;;4.32;;
77246;SDS011;66279;42.820;23.374;2023-02-25T02:42:50;7.90;;;5.05;;
77246;SDS011;66279;42.820;23.374;2023-02-25T02:48:02;6.32;;;4.80;;
77246;SDS011;66279;42.820;23.374;2023-02-25T02:50:51;6.47;;;4.88;;
77246;SDS011;66279;42.820;23.374;2023-02-25T02:53:28;6.97;;;4.75;;
77246;SDS011;66279;42.820;23.374;2023-02-25T02:56:05;7.15;;;5.35;;
77246;SDS011;66279;42.820;23.374;2023-02-25T02:58:37;5.70;;;5.13;;
77246;SDS011;66279;42.820;23.374;2023-02-25T03:01:17;6.82;;;4.93;;
77246;SDS011;66279;42.820;23.374;2023-02-25T03:04:16;5.20;;;4.68;;
77246;SDS011;66279;42.820;23.374;2023-02-25T03:06:48;5.35;;;4.35;;
77246;SDS011;66279;42.820;23.374;2023-02-25T03:09:18;4.53;;;3.83;;
77246;SDS011;66279;42.820;23.374;2023-02-25T03:11:49;7.15;;;4.32;;
77246;SDS011;66279;42.820;23.374;2023-02-25T03:14:18;8.95;;;5.85;;
77246;SDS011;66279;42.820;23.374;2023-02-25T03:16:50;5.80;;;4.38;;
77246;SDS011;66279;42.820;23.374;2023-02-25T03:19:24;5.15;;;4.65;;
77246;SDS011;66279;42.820;23.374;2023-02-25T03:22:03;7.78;;;5.57;;
77246;SDS011;66279;42.820;23.374;2023-02-25T03:25:03;6.25;;;4.63;;
77246;SDS011;66279;42.820;23.374;2023-02-25T03:27:45;5.97;;;4.30;;
77246;SDS011;66279;42.820;23.374;2023-02-25T03:33:12;5.45;;;4.57;;
77246;SDS011;66279;42.820;23.374;2023-02-25T03:35:53;6.25;;;4.55;;
77246;SDS011;66279;42.820;23.374;2023-02-25T03:38:21;4.88;;;4.38;;
77246;SDS011;66279;42.820;23.374;2023-02-25T03:40:51;6.55;;;4.32;;
77246;SDS011;66279;42.820;23.374;2023-02-25T03:43:21;5.07;;;4.15;;
77246;SDS011;66279;42.820;23.374;2023-02-25T03:45:52;7.28;;;5.53;;
77246;SDS011;66279;42.820;23.374;2023-02-25T03:48:21;5.60;;;5.03;;
77246;SDS011;66279;42.820;23.374;2023-02-25T03:50:52;9.43;;;5.40;;
77246;SDS011;66279;42.820;23.374;2023-02-25T03:53:23;5.82;;;4.47;;
77246;SDS011;66279;42.820;23.374;2023-02-25T03:55:54;7.18;;;4.82;;
77246;SDS011;66279;42.820;23.374;2023-02-25T03:58:21;4.85;;;4.07;;
77246;SDS011;66279;42.820;23.374;2023-02-25T04:00:50;6.55;;;4.63;;
77246;SDS011;66279;42.820;23.374;2023-02-25T04:03:21;7.07;;;5.30;;
77246;SDS011;66279;42.820;23.374;2023-02-25T04:05:47;34.70;;;22.88;;
77246;SDS011;66279;42.820;23.374;2023-02-25T04:08:13;16.63;;;11.68;;
77246;SDS011;66279;42.820;23.374;2023-02-25T04:10:44;11.27;;;8.27;;
77246;SDS011;66279;42.820;23.374;2023-02-25T04:13:12;9.73;;;8.27;;
77246;SDS011;66279;42.820;23.374;2023-02-25T04:15:44;9.13;;;5.55;;
77246;SDS011;66279;42.820;23.374;2023-02-25T04:18:11;8.25;;;5.93;;
77246;SDS011;66279;42.820;23.374;2023-02-25T04:20:37;6.28;;;5.00;;
77246;SDS011;66279;42.820;23.374;2023-02-25T04:23:05;6.78;;;4.95;;
77246;SDS011;66279;42.820;23.374;2023-02-25T04:28:06;5.50;;;4.22;;
77246;SDS011;66279;42.820;23.374;2023-02-25T04:30:33;6.60;;;4.93;;
77246;SDS011;66279;42.820;23.374;2023-02-25T04:32:59;5.07;;;3.90;;
77246;SDS011;66279;42.820;23.374;2023-02-25T04:35:24;7.07;;;4.38;;
77246;SDS011;66279;42.820;23.374;2023-02-25T04:37:50;5.45;;;4.82;;
77246;SDS011;66279;42.820;23.374;2023-02-25T04:40:19;7.88;;;4.82;;
77246;SDS011;66279;42.820;23.374;2023-02-25T04:42:46;6.15;;;5.18;;
77246;SDS011;66279;42.820;23.374;2023-02-25T04:45:13;5.53;;;4.22;;
77246;SDS011;66279;42.820;23.374;2023-02-25T04:47:42;10.32;;;7.57;;
77246;SDS011;66279;42.820;23.374;2023-02-25T04:50:09;8.27;;;6.40;;
77246;SDS011;66279;42.820;23.374;2023-02-25T04:52:36;14.95;;;13.35;;
77246;SDS011;66279;42.820;23.374;2023-02-25T04:55:02;63.75;;;56.88;;
77246;SDS011;66279;42.820;23.374;2023-02-25T04:57:29;17.33;;;15.30;;
77246;SDS011;66279;42.820;23.374;2023-02-25T04:59:55;10.82;;;8.40;;
77246;SDS011;66279;42.820;23.374;2023-02-25T05:02:21;11.73;;;9.05;;
77246;SDS011;66279;42.820;23.374;2023-02-25T05:04:48;13.75;;;10.35;;
77246;SDS011;66279;42.820;23.374;2023-02-25T05:07:14;20.00;;;13.18;;
77246;SDS011;66279;42.820;23.374;2023-02-25T05:09:40;11.95;;;9.32;;
77246;SDS011;66279;42.820;23.374;2023-02-25T05:12:06;11.73;;;8.48;;
77246;SDS011;66279;42.820;23.374;2023-02-25T05:14:33;12.23;;;8.77;;
77246;SDS011;66279;42.820;23.374;2023-02-25T05:17:01;8.77;;;7.88;;
77246;SDS011;66279;42.820;23.374;2023-02-25T05:19:27;10.23;;;7.72;;
77246;SDS011;66279;42.820;23.374;2023-02-25T05:21:54;9.52;;;7.38;;
77246;SDS011;66279;42.820;23.374;2023-02-25T05:24:20;7.68;;;6.88;;
77246;SDS011;66279;42.820;23.374;2023-02-25T05:26:47;7.20;;;5.93;;
77246;SDS011;66279;42.820;23.374;2023-02-25T05:29:14;8.70;;;6.93;;
77246;SDS011;66279;42.820;23.374;2023-02-25T05:31:43;6.47;;;5.53;;
77246;SDS011;66279;42.820;23.374;2023-02-25T05:34:08;9.77;;;7.05;;
77246;SDS011;66279;42.820;23.374;2023-02-25T05:36:35;10.07;;;6.22;;
77246;SDS011;66279;42.820;23.374;2023-02-25T05:39:00;8.23;;;5.68;;
77246;SDS011;66279;42.820;23.374;2023-02-25T05:41:28;7.78;;;6.78;;
77246;SDS011;66279;42.820;23.374;2023-02-25T05:43:55;8.93;;;6.30;;
77246;SDS011;66279;42.820;23.374;2023-02-25T05:46:27;8.73;;;7.65;;
77246;SDS011;66279;42.820;23.374;2023-02-25T05:48:55;12.15;;;8.20;;
77246;SDS011;66279;42.820;23.374;2023-02-25T05:51:25;11.45;;;7.72;;
77246;SDS011;66279;42.820;23.374;2023-02-25T05:53:50;9.57;;;6.75;;
77246;SDS011;66279;42.820;23.374;2023-02-25T05:56:17;10.02;;;7.85;;
77246;SDS011;66279;42.820;23.374;2023-02-25T05:58:46;12.13;;;8.88;;
77246;SDS011;66279;42.820;23.374;2023-02-25T06:01:14;12.32;;;9.85;;
77246;SDS011;66279;42.820;23.374;2023-02-25T06:03:42;13.25;;;10.00;;
77246;SDS011;66279;42.820;23.374;2023-02-25T06:06:10;11.40;;;9.13;;
77246;SDS011;66279;42.820;23.374;2023-02-25T06:08:38;16.17;;;12.32;;
77246;SDS011;66279;42.820;23.374;2023-02-25T06:11:11;14.20;;;11.82;;
77246;SDS011;66279;42.820;23.374;2023-02-25T06:13:45;16.92;;;13.65;;
77246;SDS011;66279;42.820;23.374;2023-02-25T06:16:13;14.73;;;12.55;;
77246;SDS011;66279;42.820;23.374;2023-02-25T06:18:40;15.88;;;13.95;;
77246;SDS011;66279;42.820;23.374;2023-02-25T06:21:07;18.80;;;12.88;;
77246;SDS011;66279;42.820;23.374;2023-02-25T06:23:36;23.70;;;19.63;;
77246;SDS011;66279;42.820;23.374;2023-02-25T06:26:07;21.92;;;18.90;;
77246;SDS011;66279;42.820;23.374;2023-02-25T06:28:34;19.63;;;17.02;;
77246;SDS011;66279;42.820;23.374;2023-02-25T06:31:01;23.17;;;19.70;;
77246;SDS011;66279;42.820;23.374;2023-02-25T06:33:31;19.65;;;16.90;;
77246;SDS011;66279;42.820;23.374;2023-02-25T06:35:56;20.50;;;17.98;;
77246;SDS011;66279;42.820;23.374;2023-02-25T06:38:25;16.38;;;14.35;;
77246;SDS011;66279;42.820;23.374;2023-02-25T06:40:53;12.95;;;11.65;;
77246;SDS011;66279;42.820;23.374;2023-02-25T06:43:21;11.82;;;10.57;;
77246;SDS011;66279;42.820;23.374;2023-02-25T06:45:47;10.73;;;9.30;;
77246;SDS011;66279;42.820;23.374;2023-02-25T06:48:13;10.10;;;8.48;;
77246;SDS011;66279;42.820;23.374;2023-02-25T06:50:39;10.52;;;9.23;;
77246;SDS011;66279;42.820;23.374;2023-02-25T06:53:06;12.32;;;10.52;;
77246;SDS011;66279;42.820;23.374;2023-02-25T06:55:32;12.38;;;10.10;;
77246;SDS011;66279;42.820;23.374;2023-02-25T06:57:59;12.48;;;10.75;;
77246;SDS011;66279;42.820;23.374;2023-02-25T07:00:25;12.50;;;10.98;;
77246;SDS011;66279;42.820;23.374;2023-02-25T07:02:50;13.48;;;9.68;;
77246;SDS011;66279;42.820;23.374;2023-02-25T07:05:17;12.38;;;9.02;;
77246;SDS011;66279;42.820;23.374;2023-02-25T07:07:42;11.32;;;8.40;;
77246;SDS011;66279;42.820;23.374;2023-02-25T07:10:09;9.65;;;8.60;;
77246;SDS011;66279;42.820;23.374;2023-02-25T07:12:36;12.77;;;9.00;;
77246;SDS011;66279;42.820;23.374;2023-02-25T07:15:03;11.18;;;9.35;;
77246;SDS011;66279;42.820;23.374;2023-02-25T07:17:29;13.30;;;9.05;;
77246;SDS011;66279;42.820;23.374;2023-02-25T07:19:55;10.07;;;8.82;;
77246;SDS011;66279;42.820;23.374;2023-02-25T07:22:21;13.38;;;8.88;;
77246;SDS011;66279;42.820;23.374;2023-02-25T07:24:46;13.70;;;9.45;;
77246;SDS011;66279;42.820;23.374;2023-02-25T07:27:12;9.50;;;8.07;;
77246;SDS011;66279;42.820;23.374;2023-02-25T07:29:38;11.32;;;8.18;;
77246;SDS011;66279;42.820;23.374;2023-02-25T07:32:04;11.55;;;8.63;;
77246;SDS011;66279;42.820;23.374;2023-02-25T07:34:30;12.35;;;8.43;;
77246;SDS011;66279;42.820;23.374;2023-02-25T07:36:55;9.77;;;8.43;;
77246;SDS011;66279;42.820;23.374;2023-02-25T07:39:21;10.45;;;8.73;;
77246;SDS011;66279;42.820;23.374;2023-02-25T07:41:47;12.35;;;10.30;;
77246;SDS011;66279;42.820;23.374;2023-02-25T07:44:13;11.45;;;10.35;;
77246;SDS011;66279;42.820;23.374;2023-02-25T07:46:38;10.45;;;9.27;;
77246;SDS011;66279;42.820;23.374;2023-02-25T07:49:05;11.68;;;8.98;;
77246;SDS011;66279;42.820;23.374;2023-02-25T07:51:31;11.18;;;8.77;;
77246;SDS011;66279;42.820;23.374;2023-02-25T07:53:57;10.63;;;9.52;;
77246;SDS011;66279;42.820;23.374;2023-02-25T07:56:24;11.30;;;9.32;;
77246;SDS011;66279;42.820;23.374;2023-02-25T07:58:50;9.57;;;8.65;;
77246;SDS011;66279;42.820;23.374;2023-02-25T08:01:27;9.35;;;8.45;;
77246;SDS011;66279;42.820;23.374;2023-02-25T08:04:05;9.05;;;7.63;;
77246;SDS011;66279;42.820;23.374;2023-02-25T08:06:43;9.40;;;8.60;;
77246;SDS011;66279;42.820;23.374;2023-02-25T08:09:13;10.90;;;9.57;;
77246;SDS011;66279;42.820;23.374;2023-02-25T08:11:43;10.23;;;9.15;;
77246;SDS011;66279;42.820;23.374;2023-02-25T08:14:12;12.27;;;9.57;;
77246;SDS011;66279;42.820;23.374;2023-02-25T08:16:43;11.68;;;10.10;;
77246;SDS011;66279;42.820;23.374;2023-02-25T08:19:15;9.02;;;8.05;;
77246;SDS011;66279;42.820;23.374;2023-02-25T08:21:42;10.07;;;9.07;;
77246;SDS011;66279;42.820;23.374;2023-02-25T08:24:13;11.32;;;9.00;;
77246;SDS011;66279;42.820;23.374;2023-02-25T08:26:43;9.63;;;8.43;;
77246;SDS011;66279;42.820;23.374;2023-02-25T08:29:13;9.20;;;8.18;;
77246;SDS011;66279;42.820;23.374;2023-02-25T08:31:49;9.70;;;8.45;;
77246;SDS011;66279;42.820;23.374;2023-02-25T08:34:16;8.90;;;7.43;;
77246;SDS011;66279;42.820;23.374;2023-02-25T08:36:42;7.65;;;5.68;;
77246;SDS011;66279;42.820;23.374;2023-02-25T08:39:08;9.90;;;5.88;;
77246;SDS011;66279;42.820;23.374;2023-02-25T08:41:34;8.10;;;5.35;;
77246;SDS011;66279;42.820;23.374;2023-02-25T08:44:00;5.50;;;4.35;;
77246;SDS011;66279;42.820;23.374;2023-02-25T08:46:27;5.28;;;4.68;;
77246;SDS011;66279;42.820;23.374;2023-02-25T08:48:53;5.88;;;4.82;;
77246;SDS011;66279;42.820;23.374;2023-02-25T08:51:20;6.55;;;4.53;;
77246;SDS011;66279;42.820;23.374;2023-02-25T08:53:58;6.32;;;3.75;;
77246;SDS011;66279;42.820;23.374;2023-02-25T08:56:28;8.10;;;3.60;;
77246;SDS011;66279;42.820;23.374;2023-02-25T08:58:54;4.25;;;3.40;;
77246;SDS011;66279;42.820;23.374;2023-02-25T09:01:20;8.75;;;3.55;;
77246;SDS011;66279;42.820;23.374;2023-02-25T09:03:47;4.70;;;3.40;;
77246;SDS011;66279;42.820;23.374;2023-02-25T09:06:22;6.25;;;3.08;;
77246;SDS011;66279;42.820;23.374;2023-02-25T09:08:50;7.93;;;3.60;;
77246;SDS011;66279;42.820;23.374;2023-02-25T09:11:17;5.45;;;3.50;;
77246;SDS011;66279;42.820;23.374;2023-02-25T09:13:42;9.68;;;3.58;;
77246;SDS011;66279;42.820;23.374;2023-02-25T09:16:08;9.02;;;3.78;;
77246;SDS011;66279;42.820;23.374;2023-02-25T09:18:34;4.22;;;3.33;;
77246;SDS011;66279;42.820;23.374;2023-02-25T09:21:00;4.50;;;3.17;;
77246;SDS011;66279;42.820;23.374;2023-02-25T09:23:25;4.57;;;3.42;;
77246;SDS011;66279;42.820;23.374;2023-02-25T09:25:51;9.00;;;3.85;;
77246;SDS011;66279;42.820;23.374;2023-02-25T09:28:16;7.13;;;3.92;;
77246;SDS011;66279;42.820;23.374;2023-02-25T09:30:45;6.28;;;3.85;;
77246;SDS011;66279;42.820;23.374;2023-02-25T09:33:11;6.65;;;3.30;;
77246;SDS011;66279;42.820;23.374;2023-02-25T09:35:38;9.10;;;6.15;;
77246;SDS011;66279;42.820;23.374;2023-02-25T09:38:05;7.00;;;3.35;;
77246;SDS011;66279;42.820;23.374;2023-02-25T09:40:31;5.53;;;3.03;;
77246;SDS011;66279;42.820;23.374;2023-02-25T09:45:40;7.53;;;3.83;;
77246;SDS011;66279;42.820;23.374;2023-02-25T09:48:30;4.15;;;3.10;;
77246;SDS011;66279;42.820;23.374;2023-02-25T09:51:03;6.85;;;3.60;;
77246;SDS011;66279;42.820;23.374;2023-02-25T09:56:09;5.60;;;3.65;;
77246;SDS011;66279;42.820;23.374;2023-02-25T09:58:41;6.18;;;3.28;;
77246;SDS011;66279;42.820;23.374;2023-02-25T10:06:06;7.97;;;4.03;;
77246;SDS011;66279;42.820;23.374;2023-02-25T10:11:31;5.10;;;3.80;;
77246;SDS011;66279;42.820;23.374;2023-02-25T10:16:46;9.52;;;3.97;;
77246;SDS011;66279;42.820;23.374;2023-02-25T10:25:17;6.50;;;3.03;;
77246;SDS011;66279;42.820;23.374;2023-02-25T10:27:49;5.97;;;2.85;;
77246;SDS011;66279;42.820;23.374;2023-02-25T10:30:21;5.65;;;2.92;;
77246;SDS011;66279;42.820;23.374;2023-02-25T10:32:49;8.65;;;4.43;;
77246;SDS011;66279;42.820;23.374;2023-02-25T10:37:43;6.07;;;3.35;;
77246;SDS011;66279;42.820;23.374;2023-02-25T10:40:13;8.65;;;3.78;;
77246;SDS011;66279;42.820;23.374;2023-02-25T10:42:42;6.72;;;3.78;;
77246;SDS011;66279;42.820;23.374;2023-02-25T10:47:39;26.88;;;16.27;;
77246;SDS011;66279;42.820;23.374;2023-02-25T10:52:51;7.10;;;3.78;;
77246;SDS011;66279;42.820;23.374;2023-02-25T10:58:40;6.07;;;2.92;;
77246;SDS011;66279;42.820;23.374;2023-02-25T11:01:12;7.90;;;3.75;;
77246;SDS011;66279;42.820;23.374;2023-02-25T11:06:19;5.35;;;3.47;;
77246;SDS011;66279;42.820;23.374;2023-02-25T11:08:52;8.70;;;3.85;;
77246;SDS011;66279;42.820;23.374;2023-02-25T11:11:24;7.40;;;3.60;;
77246;SDS011;66279;42.820;23.374;2023-02-25T11:16:28;8.07;;;3.90;;
77246;SDS011;66279;42.820;23.374;2023-02-25T11:18:57;5.00;;;2.22;;
77246;SDS011;66279;42.820;23.374;2023-02-25T11:21:32;4.82;;;1.58;;
77246;SDS011;66279;42.820;23.374;2023-02-25T11:24:04;6.55;;;2.13;;
77246;SDS011;66279;42.820;23.374;2023-02-25T11:26:38;7.25;;;2.28;;
77246;SDS011;66279;42.820;23.374;2023-02-25T11:29:18;3.20;;;1.65;;
77246;SDS011;66279;42.820;23.374;2023-02-25T11:31:49;3.85;;;1.50;;
77246;SDS011;66279;42.820;23.374;2023-02-25T11:34:28;5.53;;;2.00;;
77246;SDS011;66279;42.820;23.374;2023-02-25T11:36:55;6.63;;;1.90;;
77246;SDS011;66279;42.820;23.374;2023-02-25T11:39:44;2.53;;;1.77;;
77246;SDS011;66279;42.820;23.374;2023-02-25T11:42:20;6.03;;;2.25;;
77246;SDS011;66279;42.820;23.374;2023-02-25T11:44:48;6.82;;;2.20;;
77246;SDS011;66279;42.820;23.374;2023-02-25T11:47:21;4.20;;;1.90;;
77246;SDS011;66279;42.820;23.374;2023-02-25T11:52:20;4.20;;;2.80;;
77246;SDS011;66279;42.820;23.374;2023-02-25T12:00:40;6.60;;;2.08;;
77246;SDS011;66279;42.820;23.374;2023-02-25T12:06:01;3.33;;;1.55;;
77246;SDS011;66279;42.820;23.374;2023-02-25T12:09:03;6.28;;;1.75;;
77246;SDS011;66279;42.820;23.374;2023-02-25T12:17:15;4.85;;;2.15;;
77246;SDS011;66279;42.820;23.374;2023-02-25T12:26:06;2.72;;;1.80;;
77246;SDS011;66279;42.820;23.374;2023-02-25T12:37:47;6.68;;;3.13;;
77246;SDS011;66279;42.820;23.374;2023-02-25T12:40:49;5.43;;;2.38;;
77246;SDS011;66279;42.820;23.374;2023-02-25T12:43:26;6.13;;;2.83;;
77246;SDS011;66279;42.820;23.374;2023-02-25T12:51:38;4.63;;;2.33;;
77246;SDS011;66279;42.820;23.374;2023-02-25T12:57:20;5.72;;;2.20;;
77246;SDS011;66279;42.820;23.374;2023-02-25T12:59:56;4.70;;;3.75;;
77246;SDS011;66279;42.820;23.374;2023-02-25T13:10:35;3.97;;;2.38;;
77246;SDS011;66279;42.820;23.374;2023-02-25T13:16:40;2.67;;;1.80;;
77246;SDS011;66279;42.820;23.374;2023-02-25T13:39:39;4.82;;;2.30;;
77246;SDS011;66279;42.820;23.374;2023-02-25T13:42:26;6.32;;;2.40;;
77246;SDS011;66279;42.820;23.374;2023-02-25T13:50:51;4.32;;;2.33;;
77246;SDS011;66279;42.820;23.374;2023-02-25T14:07:30;11.82;;;4.43;;
77246;SDS011;66279;42.820;23.374;2023-02-25T14:23:52;5.65;;;2.20;;
77246;SDS011;66279;42.820;23.374;2023-02-25T14:26:42;7.57;;;2.22;;
77246;SDS011;66279;42.820;23.374;2023-02-25T14:34:40;4.03;;;1.88;;
77246;SDS011;66279;42.820;23.374;2023-02-25T14:43:03;4.50;;;3.22;;
77246;SDS011;66279;42.820;23.374;2023-02-25T14:45:43;7.07;;;3.20;;
77246;SDS011;66279;42.820;23.374;2023-02-25T14:48:17;3.38;;;1.85;;
77246;SDS011;66279;42.820;23.374;2023-02-25T14:53:46;5.47;;;3.35;;
77246;SDS011;66279;42.820;23.374;2023-02-25T14:56:39;6.15;;;2.58;;
77246;SDS011;66279;42.820;23.374;2023-02-25T15:12:44;6.57;;;2.88;;
77246;SDS011;66279;42.820;23.374;2023-02-25T15:15:23;4.15;;;1.90;;
77246;SDS011;66279;42.820;23.374;2023-02-25T15:20:43;4.65;;;2.72;;
77246;SDS011;66279;42.820;23.374;2023-02-25T15:28:03;7.65;;;1.73;;
77246;SDS011;66279;42.820;23.374;2023-02-25T15:33:41;6.00;;;3.15;;
77246;SDS011;66279;42.820;23.374;2023-02-25T15:43:51;5.72;;;2.75;;
77246;SDS011;66279;42.820;23.374;2023-02-25T15:49:02;7.28;;;3.83;;
77246;SDS011;66279;42.820;23.374;2023-02-25T15:51:48;7.38;;;3.90;;
77246;SDS011;66279;42.820;23.374;2023-02-25T15:56:58;3.58;;;2.22;;
77246;SDS011;66279;42.820;23.374;2023-02-25T15:59:48;5.72;;;2.55;;
77246;SDS011;66279;42.820;23.374;2023-02-25T16:07:22;7.57;;;3.38;;
77246;SDS011;66279;42.820;23.374;2023-02-25T16:09:57;7.47;;;3.30;;
77246;SDS011;66279;42.820;23.374;2023-02-25T16:12:26;6.43;;;2.70;;
77246;SDS011;66279;42.820;23.374;2023-02-25T16:14:53;5.72;;;2.83;;
77246;SDS011;66279;42.820;23.374;2023-02-25T16:19:55;7.75;;;3.95;;
77246;SDS011;66279;42.820;23.374;2023-02-25T16:22:27;6.65;;;3.08;;
77246;SDS011;66279;42.820;23.374;2023-02-25T16:24:54;3.92;;;3.13;;
77246;SDS011;66279;42.820;23.374;2023-02-25T16:32:45;7.22;;;3.45;;
77246;SDS011;66279;42.820;23.374;2023-02-25T16:38:33;5.07;;;2.35;;
77246;SDS011;66279;42.820;23.374;2023-02-25T16:41:06;6.22;;;3.17;;
77246;SDS011;66279;42.820;23.374;2023-02-25T16:43:36;5.20;;;2.53;;
77246;SDS011;66279;42.820;23.374;2023-02-25T16:46:04;2.97;;;2.30;;
77246;SDS011;66279;42.820;23.374;2023-02-25T16:48:44;5.25;;;2.83;;
77246;SDS011;66279;42.820;23.374;2023-02-25T16:51:28;3.95;;;1.85;;
77246;SDS011;66279;42.820;23.374;2023-02-25T16:56:27;11.98;;;4.80;;
77246;SDS011;66279;42.820;23.374;2023-02-25T16:59:00;8.93;;;6.60;;
77246;SDS011;66279;42.820;23.374;2023-02-25T17:01:45;8.18;;;5.68;;
77246;SDS011;66279;42.820;23.374;2023-02-25T17:04:15;10.25;;;7.22;;
77246;SDS011;66279;42.820;23.374;2023-02-25T17:07:03;8.43;;;3.88;;
77246;SDS011;66279;42.820;23.374;2023-02-25T17:10:02;10.55;;;4.85;;
77246;SDS011;66279;42.820;23.374;2023-02-25T17:12:36;3.35;;;2.08;;
77246;SDS011;66279;42.820;23.374;2023-02-25T17:15:27;4.32;;;2.63;;
77246;SDS011;66279;42.820;23.374;2023-02-25T17:17:59;9.85;;;6.53;;
77246;SDS011;66279;42.820;23.374;2023-02-25T17:20:31;9.48;;;4.72;;
77246;SDS011;66279;42.820;23.374;2023-02-25T17:22:57;11.70;;;7.75;;
77246;SDS011;66279;42.820;23.374;2023-02-25T17:25:29;6.13;;;2.35;;
77246;SDS011;66279;42.820;23.374;2023-02-25T17:28:01;9.02;;;3.15;;
77246;SDS011;66279;42.820;23.374;2023-02-25T17:30:34;5.65;;;2.60;;
77246;SDS011;66279;42.820;23.374;2023-02-25T17:33:05;6.97;;;3.03;;
77246;SDS011;66279;42.820;23.374;2023-02-25T17:35:42;7.93;;;3.15;;
77246;SDS011;66279;42.820;23.374;2023-02-25T17:38:10;5.13;;;2.92;;
77246;SDS011;66279;42.820;23.374;2023-02-25T17:40:39;5.10;;;2.15;;
77246;SDS011;66279;42.820;23.374;2023-02-25T17:43:15;8.55;;;4.72;;
77246;SDS011;66279;42.820;23.374;2023-02-25T17:45:42;3.53;;;1.77;;
77246;SDS011;66279;42.820;23.374;2023-02-25T17:48:16;6.10;;;2.42;;
77246;SDS011;66279;42.820;23.374;2023-02-25T17:50:51;4.80;;;2.60;;
77246;SDS011;66279;42.820;23.374;2023-02-25T17:53:26;4.25;;;2.00;;
77246;SDS011;66279;42.820;23.374;2023-02-25T17:55:54;3.10;;;2.45;;
77246;SDS011;66279;42.820;23.374;2023-02-25T17:58:20;3.47;;;2.50;;
77246;SDS011;66279;42.820;23.374;2023-02-25T18:00:57;5.90;;;2.53;;
77246;SDS011;66279;42.820;23.374;2023-02-25T18:03:25;3.72;;;2.10;;
77246;SDS011;66279;42.820;23.374;2023-02-25T18:06:00;4.20;;;2.10;;
77246;SDS011;66279;42.820;23.374;2023-02-25T18:08:29;2.95;;;2.20;;
77246;SDS011;66279;42.820;23.374;2023-02-25T18:10:57;3.17;;;1.80;;
77246;SDS011;66279;42.820;23.374;2023-02-25T18:13:48;4.53;;;2.30;;
77246;SDS011;66279;42.820;23.374;2023-02-25T18:19:10;5.55;;;2.38;;
77246;SDS011;66279;42.820;23.374;2023-02-25T18:21:48;3.10;;;1.90;;
77246;SDS011;66279;42.820;23.374;2023-02-25T18:24:48;4.65;;;2.17;;
77246;SDS011;66279;42.820;23.374;2023-02-25T18:27:19;4.43;;;2.88;;
77246;SDS011;66279;42.820;23.374;2023-02-25T18:29:50;3.50;;;2.10;;
77246;SDS011;66279;42.820;23.374;2023-02-25T18:32:16;5.38;;;2.45;;
77246;SDS011;66279;42.820;23.374;2023-02-25T18:34:42;5.47;;;2.10;;
77246;SDS011;66279;42.820;23.374;2023-02-25T18:37:09;5.72;;;2.30;;
77246;SDS011;66279;42.820;23.374;2023-02-25T18:39:37;6.38;;;3.00;;
77246;SDS011;66279;42.820;23.374;2023-02-25T18:42:03;8.02;;;3.40;;
77246;SDS011;66279;42.820;23.374;2023-02-25T18:44:29;6.13;;;2.75;;
77246;SDS011;66279;42.820;23.374;2023-02-25T18:46:55;3.50;;;1.65;;
77246;SDS011;66279;42.820;23.374;2023-02-25T18:49:20;3.78;;;2.47;;
77246;SDS011;66279;42.820;23.374;2023-02-25T18:51:46;3.83;;;2.40;;
77246;SDS011;66279;42.820;23.374;2023-02-25T18:54:14;6.80;;;2.35;;
77246;SDS011;66279;42.820;23.374;2023-02-25T18:56:41;4.85;;;2.58;;
77246;SDS011;66279;42.820;23.374;2023-02-25T18:59:07;4.40;;;2.78;;